Glasgow, MT

12:14 PM MDT on August 22, 2014 (GMT -0600)
Clayton | Change Station
CLOSE
Current Station
Airport
Location: Wolf Point,
Elevation: 1985 ft
Nearby Weather Stations
Active Advisory: Lake Wind Advisory Active Notice: Public Information Statement

Elev 1985 ft 48.09 °N, 105.58 °W | Updated 21 minutes ago

Light Rain
Light Rain
62 °F
Feels Like 62 °F
N
13
Wind Variable Wind from NE

Today
High -- | Low -- °F
--% Chance of Precip.
Yesterday
High -- | Low -- °F
Precip. -- in
6:10 AM 8:06 PM
Waning Crescent, 7% visible
Pressure 30.11 in
Visibility 10.0 miles
Clouds Scattered Clouds 6500 ft
Overcast 8500 ft
Dew Point 57 °F
Humidity 84%
Rainfall 0.48 in
Snow Depth Not available.
UV 2 out of 12
Pollen 4.80 out of 12
Air Quality Not available.
Flu Activity Not available.
METAR KOLF 221753Z AUTO 05011KT 10SM -RA SCT065 OVC085 17/14 A3011 RMK AO2 SLP196 P0004 60028 T01670139 10167 20161 50002

More Conditions Fewer Conditions

Pressure 30.11 in
Visibility 10.0 miles
Clouds Scattered Clouds 6500 ft
Overcast 8500 ft
Dew Point 57 °F
Humidity 84%
Rainfall 0.48 in
Snow Depth Not available.
UV 2 out of 12
Pollen 4.80 out of 12
Air Quality Not available.
Flu Activity Not available.
METAR KOLF 221753Z AUTO 05011KT 10SM -RA SCT065 OVC085 17/14 A3011 RMK AO2 SLP196 P0004 60028 T01670139 10167 20161 50002

More Conditions Fewer Conditions

10-Day Weather Forecast

Almanac

Astronomy

Aug. 22, 2014 Rise Set
Actual Time 6:10 AM MDT 8:06 PM MDT
Civil Twilight 5:36 AM MDT 8:39 PM MDT
Nautical Twilight 4:55 AM MDT 9:20 PM MDT
Astronomical Twilight 4:09 AM MDT 10:06 PM MDT
Moon 3:29 AM MDT 6:20 PM MDT
Length of Visible Light 15h 03m
Length of Day
13h 56m
Tomorrow will be 3m 17s shorter.
Waning Crescent, 7% of the Moon is Illuminated
Today
Waning Crescent
Aug 25
New
Sep 2
First Quarter
Sep 8
Full
Sep 15
Last Quarter

Today's Extremes

State Highs State Lows

Community

WunderPhotos

Upload Photos

1,746,214 photos uploaded!

WunderBlogs® & News

Nearby

Snow Depth

Station Depth Elevation
Crystal Lake 0 in 6050 ft
Daisy Peak 0 in 7600 ft
Spur Park 0 in 8100 ft
Deadman Creek 0 in 6450 ft
Onion Park 0 in 7410 ft

Earthquake Activity

City Distance Mag. Time & Date
No recent earthquake activity has been reported nearby.
Minimum magnitude displayed is 2.5.

Coastal Water Temperatures

Place Temperature
No Stations Reporting

Nearby Weather Stations